Latest Coastal Weather Observations for Low Rocky Point

IDT60701

Issued at 6:02 am EDT Tuesday 7 February 2023 (issued every 10 minutes, with the page automatically refreshed every 10 minutes)

About coastal observations | Map of coastal stations | Coastal observations for TAS | Marine services | Other Formats
Station Details ID: 097080 Name: LOW ROCKY POINT Lat: -42.98 Lon: 145.50 Height: 34.0 m
Data from the previous 72 hours. | See also: Recent months at Low Rocky Point
Date/Time
EDT
Wind Sea
Height
m
Swell Vis
km
Cloud Weather Temp
°C
Press
MSL
hPa
Rain since
9am
mm
Dir  Spd
kts
Gust
kts
Height
m
Period
s
Dir
07/06:00am WSW 12 18 - - - - - - - 14.0 1017.1 0.4
07/05:30am SW 8 11 - - - - - - - 12.9 1017.0 0.4
07/05:00am W 14 17 - - - - - - - 14.3 1017.0 0.4
07/04:30am W 11 17 - - - - - - - 14.2 1016.8 0.4
07/04:00am W 13 18 - - - - - - - 14.4 1016.8 0.4
07/03:30am W 13 16 - - - - - - - 14.2 1016.9 0.4
07/03:00am W 12 17 - - - - - - - 14.2 1017.0 0.4
07/02:30am WSW 16 21 - - - - - - - 14.1 1017.0 0.4
07/02:00am W 15 18 - - - - - - - 14.1 1016.9 0.4
07/01:30am W 16 20 - - - - - - - 14.2 1017.1 0.4
07/01:00am WSW 13 18 - - - - - - - 13.7 1017.2 0.4
07/12:30am WSW 14 20 - - - - - - - 13.2 1017.3 0.4
07/12:00am W 13 17 - - - - - - Recent precip. 12.7 1017.5 0.4
 
Date/Time
EDT
Wind Sea
Height
m
Swell Vis
km
Cloud Weather Temp
°C
Press
MSL
hPa
Rain since
9am
mm
Dir  Spd
kts
Gust
kts
Height
m
Period
s
Dir
06/11:30pm W 14 17 - - - - - - - 13.1 1017.5 0.2
06/11:04pm WSW 15 25 - - - - - - - 12.5 1017.7 0.2
06/11:00pm WSW 16 25 - - - - - - - 12.7 1017.7 0.2
06/10:55pm WSW 15 25 - - - - - - - 13.1 1017.6 0.2
06/10:30pm W 17 21 - - - - - - - 14.0 1017.4 0.2
06/10:00pm W 15 21 - - - - - - - 13.6 1017.2 0.2
06/09:30pm W 17 22 - - - - - - - 14.6 1017.0 0.2
06/09:00pm WNW 18 20 - - - - - - - 14.6 1016.7 0.2
06/08:30pm W 18 22 - - - - - - - 14.6 1016.6 0.2
06/08:00pm W 15 20 - - - - - - - 14.7 1016.5 0.2
06/07:30pm W 18 21 - - - - - - - 14.9 1016.5 0.2
06/07:00pm W 19 24 - - - - - - - 15.3 1016.3 0.2
06/06:30pm W 18 22 - - - - - - - 16.1 1016.3 0.2
06/06:00pm W 17 21 - - - - - - - 16.0 1016.3 0.2
06/05:30pm W 17 21 - - - - - - - 16.7 1016.2 0.2
06/05:00pm WNW 19 23 - - - - - - - 16.5 1016.2 0.2
06/04:30pm WNW 19 22 - - - - - - - 17.2 1016.3 0.2
06/04:00pm WNW 19 23 - - - - - - - 17.4 1016.4 0.2
06/03:30pm WNW 22 26 - - - - - - - 17.2 1016.5 0.2
06/03:00pm WNW 20 25 - - - - - - - 17.3 1016.5 0.2
06/02:30pm W 22 26 - - - - - - - 17.5 1016.6 0.2
06/02:00pm W 18 23 - - - - - - - 17.4 1016.6 0.2
06/01:30pm W 19 23 - - - - - - - 18.2 1016.4 0.2
06/01:00pm W 22 25 - - - - - - - 17.0 1016.1 0.2
06/12:30pm W 18 22 - - - - - - - 16.5 1016.2 0.2
06/12:00pm W 18 22 - - - - - - - 16.0 1016.3 0.2
06/11:30am W 17 22 - - - - - - - 16.0 1016.2 0.2
06/11:00am WNW 18 20 - - - - - - - 15.0 1016.2 0.2
06/10:30am W 21 27 - - - - - - - 14.1 1016.2 0.2
06/10:04am WNW 21 25 - - - - - - - 15.6 1016.0 0.0
06/10:00am WNW 21 25 - - - - - - - 15.9 1015.8 0.0
06/09:30am WNW 22 25 - - - - - - - 16.2 1015.5 0.0
06/09:00am WNW 20 24 - - - - - - - 15.6 1015.4 0.8
06/08:30am WNW 20 23 - - - - - - - 15.5 1015.1 0.8
06/08:00am WNW 20 23 - - - - - - - 15.0 1015.1 0.8
06/07:30am W 18 21 - - - - - - - 14.6 1014.9 0.8
06/07:00am WNW 19 24 - - - - - - - 14.4 1014.6 0.8
06/06:30am W 18 22 - - - - - - - 14.8 1014.6 0.8
06/06:00am WNW 20 23 - - - - - - - 14.5 1014.2 0.8
06/05:30am WNW 20 23 - - - - - - - 14.2 1014.0 0.8
06/05:00am WNW 17 22 - - - - - - - 14.2 1013.8 0.8
06/04:30am WNW 21 25 - - - - - - - 14.0 1014.0 0.6
06/04:00am WNW 19 23 - - - - - - - 14.0 1014.0 0.4
06/03:46am NW 17 27 - - - - - - - 14.2 1014.1 0.2
06/03:30am NW 17 21 - - - - - - - 13.9 1014.3 0.2
06/03:00am NW 20 24 - - - - - - - 14.1 1014.3 0.0
06/02:30am NW 18 23 - - - - - - - 14.0 1014.4 0.0
06/02:00am NW 19 26 - - - - - - - 13.8 1014.5 0.0
06/01:30am NW 18 22 - - - - - - - 14.9 1014.5 0.0
06/01:00am NW 17 21 - - - - - - - 14.3 1014.6 0.0
06/12:30am NW 16 20 - - - - - - - 14.7 1014.8 0.0
06/12:00am NW 17 22 - - - - - - - 14.4 1015.1 0.0
 
Date/Time
EDT
Wind Sea
Height
m
Swell Vis
km
Cloud Weather Temp
°C
Press
MSL
hPa
Rain since
9am
mm
Dir  Spd
kts
Gust
kts
Height
m
Period
s
Dir
05/11:30pm NW 16 20 - - - - - - - 14.4 1015.0 0.0
05/11:00pm WNW 16 20 - - - - - - - 14.7 1015.0 0.0
05/10:30pm WNW 20 23 - - - - - - - 14.9 1015.0 0.0
05/10:00pm WNW 17 22 - - - - - - - 14.8 1015.2 0.0
05/09:30pm WNW 16 21 - - - - - - - 14.4 1015.2 0.0
05/09:00pm NW 16 23 - - - - - - - 14.4 1015.0 0.0
05/08:30pm WNW 18 22 - - - - - - - 14.9 1014.9 0.0
05/08:00pm WNW 19 23 - - - - - - - 15.0 1014.6 0.0
05/07:30pm NW 17 21 - - - - - - - 15.5 1014.2 0.0
05/07:00pm NW 17 21 - - - - - - - 15.6 1014.1 0.0
05/06:30pm NW 17 21 - - - - - - - 15.6 1014.3 0.0
05/06:00pm NW 16 20 - - - - - - - 15.9 1014.2 0.0
05/05:30pm WNW 16 19 - - - - - - - 15.7 1014.5 0.0
05/05:00pm WNW 17 21 - - - - - - - 15.9 1014.5 0.0
05/04:30pm WNW 13 17 - - - - - - - 16.2 1014.4 0.0
05/04:00pm NW 12 15 - - - - - - - 15.7 1014.5 0.0
05/03:30pm WNW 15 19 - - - - - - - 15.2 1014.7 0.0
05/03:00pm WNW 14 16 - - - - - - - 15.2 1014.8 0.0
05/02:30pm WNW 13 16 - - - - - - - 15.9 1014.8 0.0
05/02:00pm NW 11 14 - - - - - - - 17.0 1014.7 0.0
05/01:30pm NW 12 15 - - - - - - - 15.9 1014.7 0.0
05/01:00pm NW 11 14 - - - - - - - 16.2 1014.7 0.0
05/12:30pm WNW 12 15 - - - - - - - 15.5 1014.6 0.0
05/12:00pm WNW 12 14 - - - - - - - 15.3 1014.5 0.0
05/11:30am WNW 11 14 - - - - - - - 15.6 1014.4 0.0
05/11:00am WNW 12 15 - - - - - - - 15.1 1014.3 0.0
05/10:30am WNW 12 14 - - - - - - - 15.2 1014.0 0.0
05/10:00am W 8 11 - - - - - - - 16.3 1013.7 0.0
05/09:30am W 9 11 - - - - - - - 16.1 1013.4 0.0
05/09:00am W 10 13 - - - - - - - 15.0 1013.2 1.2
05/08:30am WSW 10 15 - - - - - - - 14.3 1012.8 1.2
05/08:00am WSW 9 13 - - - - - - - 14.3 1012.4 1.2
05/07:30am WSW 13 17 - - - - - - - 13.8 1012.0 1.2
05/07:00am WSW 10 14 - - - - - - - 13.9 1011.7 1.2
05/06:30am WSW 14 17 - - - - - - - 13.9 1011.2 1.2
05/06:00am WSW 11 14 - - - - - - - 13.9 1010.7 1.2
05/05:30am SW 9 12 - - - - - - - 13.5 1010.4 1.2
05/05:00am SW 8 11 - - - - - - - 13.9 1010.0 1.2
05/04:30am SW 10 13 - - - - - - - 13.7 1009.8 1.2
05/04:00am SW 7 11 - - - - - - - 13.3 1009.7 1.2
05/03:30am SW 11 15 - - - - - - - 13.6 1009.7 1.2
05/03:00am SW 9 13 - - - - - - - 13.9 1009.4 1.2
05/02:30am SSW 11 15 - - - - - - - 13.6 1009.3 1.2
05/02:00am SSW 13 19 - - - - - - - 13.7 1009.3 1.2
05/01:30am SSW 14 19 - - - - - - - 13.7 1009.2 1.2
05/01:00am SW 14 21 - - - - - - - 13.6 1008.9 1.2
05/12:30am SW 14 19 - - - - - - - 13.9 1008.5 1.2
05/12:00am SW 17 24 - - - - - - - 14.1 1008.5 1.2
 
Date/Time
EDT
Wind Sea
Height
m
Swell Vis
km
Cloud Weather Temp
°C
Press
MSL
hPa
Rain since
9am
mm
Dir  Spd
kts
Gust
kts
Height
m
Period
s
Dir
04/11:30pm SW 15 21 - - - - - - - 14.1 1008.5 1.2
04/11:00pm SW 14 19 - - - - - - - 14.1 1008.4 1.2
04/10:30pm SW 16 21 - - - - - - - 14.1 1008.1 1.2
04/10:10pm SSW 15 26 - - - - - - - 14.1 1007.8 1.2
04/10:00pm SSW 13 19 - - - - - - - 14.0 1007.7 1.2
04/09:30pm SW 15 21 - - - - - - - 14.3 1007.1 1.2
04/09:00pm SSW 17 24 - - - - - - - 13.9 1006.5 1.2
04/08:30pm SSW 17 24 - - - - - - - 14.1 1006.1 1.2
04/08:00pm SW 18 25 - - - - - - - 14.2 1005.6 1.2
04/07:30pm SSW 17 24 - - - - - - - 14.3 1005.1 1.2
04/07:00pm SW 19 25 - - - - - - - 14.3 1004.5 1.2
04/06:30pm SSW 17 26 - - - - - - - 14.2 1004.1 1.2
04/06:06pm SW 18 29 - - - - - - - 14.3 1003.7 1.2
04/06:00pm SW 18 25 - - - - - - - 14.3 1003.6 1.2
04/05:30pm SW 18 27 - - - - - - - 14.2 1003.1 1.2
04/05:21pm SW 18 28 - - - - - - - 14.3 1003.1 1.2
04/05:00pm SW 19 27 - - - - - - - 14.0 1002.8 1.2
04/04:45pm SSW 19 29 - - - - - - - 14.3 1002.6 1.2
04/04:30pm SSW 19 25 - - - - - - - 14.2 1002.4 1.2
04/04:00pm SW 19 28 - - - - - - - 14.0 1002.0 1.2
04/03:49pm SW 18 28 - - - - - - - 14.3 1001.9 1.2
04/03:30pm SSW 18 27 - - - - - - - 14.3 1001.6 1.2
04/03:03pm SSW 19 29 - - - - - - - 14.3 1001.2 1.2
04/03:00pm SW 20 27 - - - - - - - 14.0 1001.2 1.2
04/02:42pm SSW 19 29 - - - - - - - 13.7 1001.1 1.2
04/02:30pm SW 20 26 - - - - - - - 13.6 1001.1 1.2
04/02:00pm SW 21 32 - - - - - - - 13.3 1000.8 1.2
04/01:52pm SW 20 32 - - - - - - - 13.3 1000.7 1.2
04/01:30pm SW 20 29 - - - - - - - 12.9 1000.5 1.2
04/01:00pm SW 19 27 - - - - - - - 12.8 1000.3 1.2
04/12:30pm SW 20 30 - - - - - - - 12.7 999.9 1.2
04/12:00pm SW 18 29 - - - - - - - 13.2 999.6 0.6
04/11:40am SW 18 28 - - - - - - - 13.1 999.3 0.6
04/11:30am SSW 19 26 - - - - - - - 13.1 999.2 0.6
04/11:00am SSW 18 25 - - - - - - - 12.8 998.8 0.6
04/10:46am SW 18 28 - - - - - - - 12.8 998.6 0.6
04/10:30am SSW 17 25 - - - - - - - 13.1 998.5 0.2
04/10:00am SSW 19 27 - - - - - - - 13.0 998.2 0.2
04/09:38am SW 19 29 - - - - - - - 12.7 997.8 0.2
04/09:30am SSW 19 28 - - - - - - - 12.9 997.7 0.2
04/09:21am SW 16 26 - - - - - - - 13.1 997.6 0.2
04/09:00am SSW 20 28 - - - - - - Recent precip. 12.8 997.5 23.6
04/08:37am SSW 18 28 - - - - - - - 12.8 997.2 23.4
04/08:30am SSW 18 26 - - - - - - - 13.0 997.1 23.4
04/08:04am SSW 16 26 - - - - - - - 12.9 996.8 23.0
04/08:00am SSW 17 26 - - - - - - - 12.7 996.8 23.0
04/07:36am SSW 17 28 - - - - - - - 12.4 996.4 22.8
04/07:30am SSW 17 24 - - - - - - - 12.6 996.3 22.8
04/07:00am SSW 16 26 - - - - - - - 12.8 995.9 22.4
04/06:58am SSW 16 26 - - - - - - - 12.6 995.9 22.4
04/06:30am SSW 19 26 - - - - - - - 12.4 995.6 21.8
04/06:19am SW 17 27 - - - - - - - 12.5 995.5 21.8

Other formats

Comma delimited format used in spreadsheet applications
http://www.bom.gov.au/fwo/IDT60701/IDT60701.95961.axf

JavaScript Object Notation format (JSON) in row-major order
http://www.bom.gov.au/fwo/IDT60701/IDT60701.95961.json

Data quality

Most of these data are generated automatically and are frequently updated. Quality checks on data are not normally performed. It is possible for incorrect values to appear. Refer to information at About Latest Weather Observations and please check the disclaimer before using these data.